Time;durP1;ratioP1;P1;durP2;ratioP2;P2;SDS_P1;SDS_P2;PMS_P1;PMS_P2;Temp;Humidity;BMP_temperature;BMP_pressure;BME280_temperature;BME280_humidity;BME280_pressure;Samples;Min_cycle;Max_cycle;Signal;HPM_P1;HPM_P2
2021/09/12 00:02:06;;;;;;;6.80;5.20;;;;;;;18.56;100.00;98236.38;5093572;28;20232;-75
2021/09/12 00:04:33;;;;;;;6.40;5.28;;;;;;;18.58;100.00;98231.22;5091193;28;20597;-76
2021/09/12 00:06:59;;;;;;;10.13;5.80;;;;;;;18.58;100.00;98240.41;5072804;28;20213;-74
2021/09/12 00:09:26;;;;;;;7.20;5.43;;;;;;;18.57;100.00;98238.00;5088809;28;20237;-76
2021/09/12 00:11:52;;;;;;;8.20;5.70;;;;;;;18.56;100.00;98234.41;5072859;28;20201;-74
2021/09/12 00:14:19;;;;;;;6.75;5.82;;;;;;;18.61;100.00;98238.84;5070914;28;20304;-74
2021/09/12 00:16:46;;;;;;;6.63;5.00;;;;;;;18.60;100.00;98237.22;5087868;28;20292;-74
2021/09/12 00:19:12;;;;;;;7.82;5.85;;;;;;;18.66;100.00;98244.06;5072454;28;20264;-75
2021/09/12 00:21:38;;;;;;;8.63;6.33;;;;;;;18.61;100.00;98236.81;5088060;28;20251;-75
2021/09/12 00:24:05;;;;;;;6.38;5.75;;;;;;;18.57;100.00;98240.81;5071955;28;20312;-75
2021/09/12 00:26:32;;;;;;;7.13;5.97;;;;;;;18.50;100.00;98240.75;5071742;28;20292;-75
2021/09/12 00:28:58;;;;;;;5.80;5.05;;;;;;;18.44;100.00;98242.28;5080884;28;20197;-74
2021/09/12 00:31:25;;;;;;;5.95;4.75;;;;;;;18.47;100.00;98235.91;5092921;28;20231;-75
2021/09/12 00:33:51;;;;;;;6.85;5.32;;;;;;;18.46;100.00;98231.53;5092141;28;20243;-75
2021/09/12 00:36:18;;;;;;;6.63;5.18;;;;;;;18.45;100.00;98238.31;5092815;28;20208;-75
2021/09/12 00:38:44;;;;;;;7.60;5.63;;;;;;;18.45;100.00;98235.53;5093030;28;20246;-75
2021/09/12 00:41:10;;;;;;;8.00;5.80;;;;;;;18.49;100.00;98230.75;5092547;28;20584;-75
2021/09/12 00:43:37;;;;;;;6.53;5.28;;;;;;;18.47;100.00;98231.13;5091995;28;20204;-76
2021/09/12 00:46:06;;;;;;;7.30;5.37;;;;;;;18.47;100.00;98235.91;5092167;28;20208;-76
2021/09/12 00:48:34;;;;;;;9.30;6.30;;;;;;;18.40;100.00;98238.63;5092456;28;20208;-75
2021/09/12 00:51:02;;;;;;;8.18;5.85;;;;;;;18.24;100.00;98227.72;5091632;28;20208;-74
2021/09/12 00:53:31;;;;;;;9.00;5.43;;;;;;;18.27;100.00;98231.72;5090626;28;20200;-75
2021/09/12 00:56:00;;;;;;;6.53;5.37;;;;;;;18.30;100.00;98231.78;5091669;28;20295;-76
2021/09/12 00:58:28;;;;;;;7.70;6.10;;;;;;;18.27;100.00;98226.13;5091093;28;20208;-75
2021/09/12 01:34:25;;;;;;;7.47;5.53;;;;;;;17.81;100.00;98226.47;5109333;27;20347;-75
2021/09/12 01:36:52;;;;;;;8.37;5.57;;;;;;;17.86;100.00;98226.13;5108112;28;20210;-75
2021/09/12 01:39:18;;;;;;;7.23;5.93;;;;;;;17.88;100.00;98226.56;5108314;28;20672;-75
2021/09/12 01:41:45;;;;;;;8.63;5.60;;;;;;;17.91;100.00;98225.81;5109334;28;20200;-74
2021/09/12 01:44:11;;;;;;;8.93;5.83;;;;;;;17.88;100.00;98220.97;5109071;28;20223;-74
2021/09/12 01:46:46;;;;;;;7.30;5.27;;;;;;;17.93;100.00;98217.84;5096942;28;20203;-74
2021/09/12 01:49:13;;;;;;;9.67;6.40;;;;;;;17.86;100.00;98217.75;5089021;28;20638;-75
2021/09/12 01:51:40;;;;;;;7.77;5.53;;;;;;;17.91;100.00;98219.41;5103986;28;20200;-75
2021/09/12 01:54:07;;;;;;;8.10;6.40;;;;;;;17.75;100.00;98224.44;5123568;28;20240;-75
2021/09/12 01:56:34;;;;;;;7.70;5.70;;;;;;;17.66;100.00;98221.94;5113390;28;20295;-75
2021/09/12 01:59:02;;;;;;;7.73;5.57;;;;;;;17.72;100.00;98228.78;5108840;28;20686;-76
2021/09/12 02:01:28;;;;;;;7.23;5.67;;;;;;;17.73;100.00;98224.81;5109856;28;20661;-75
2021/09/12 02:03:55;;;;;;;7.20;5.50;;;;;;;17.72;100.00;98228.78;5109058;28;20223;-76
2021/09/12 02:06:22;;;;;;;7.50;5.50;;;;;;;17.74;100.00;98225.59;5092109;28;20205;-76
2021/09/12 02:08:48;;;;;;;6.07;4.90;;;;;;;17.82;100.00;98228.09;5087294;28;20668;-76
2021/09/12 02:11:15;;;;;;;8.20;5.37;;;;;;;17.80;100.00;98216.50;5088509;28;20665;-75
2021/09/12 02:13:42;;;;;;;7.07;5.50;;;;;;;17.85;100.00;98224.53;5088271;28;20232;-75
2021/09/12 02:16:08;;;;;;;7.60;5.47;;;;;;;17.83;100.00;98224.13;5088263;28;20692;-74
2021/09/12 02:18:35;;;;;;;4.93;4.43;;;;;;;17.88;100.00;98214.59;5087547;28;20207;-76
2021/09/12 02:21:01;;;;;;;8.27;4.83;;;;;;;17.93;100.00;98217.84;5096188;28;20264;-74
2021/09/12 02:23:28;;;;;;;6.33;5.30;;;;;;;17.84;100.00;98217.34;5108806;28;20204;-74
2021/09/12 02:25:54;;;;;;;6.57;5.50;;;;;;;17.87;100.00;98221.34;5102811;28;20243;-75
2021/09/12 02:28:21;;;;;;;7.30;5.20;;;;;;;17.88;100.00;98220.97;5088314;28;20219;-74
2021/09/12 02:30:47;;;;;;;6.17;4.63;;;;;;;17.88;100.00;98220.19;5088850;28;20294;-74
2021/09/12 02:33:14;;;;;;;7.67;5.73;;;;;;;17.88;100.00;98220.97;5108952;28;20249;-74
2021/09/12 02:35:41;;;;;;;6.23;4.77;;;;;;;17.92;100.00;98215.41;5128424;28;20241;-73
2021/09/12 02:38:07;;;;;;;5.90;5.00;;;;;;;17.93;100.00;98217.03;5128652;27;20295;-73
2021/09/12 02:40:34;;;;;;;5.87;5.03;;;;;;;17.92;100.00;98229.38;5129109;28;20206;-76
2021/09/12 02:43:01;;;;;;;6.93;5.03;;;;;;;17.93;100.00;98231.81;5128919;27;20583;-74
2021/09/12 02:45:28;;;;;;;6.53;5.20;;;;;;;17.91;100.00;98234.19;5116430;28;20270;-74
2021/09/12 02:47:54;;;;;;;7.73;5.80;;;;;;;17.89;100.00;98222.59;5114917;28;20672;-75
2021/09/12 02:50:21;;;;;;;7.90;5.83;;;;;;;17.77;100.00;98231.22;5114797;28;20696;-75
2021/09/12 02:52:47;;;;;;;7.20;5.87;;;;;;;17.64;100.00;98234.66;5114972;28;20231;-75
2021/09/12 02:55:14;;;;;;;7.63;5.53;;;;;;;17.48;100.00;98234.09;5114212;28;20231;-75
2021/09/12 02:57:41;;;;;;;7.63;6.00;;;;;;;17.56;100.00;98239.34;5114793;28;20208;-75
2021/09/12 03:00:08;;;;;;;7.00;5.77;;;;;;;17.56;100.00;98239.34;5096630;28;20949;-75
2021/09/12 03:02:34;;;;;;;6.03;5.37;;;;;;;17.72;100.00;98241.91;5096721;28;20295;-73
2021/09/12 03:05:02;;;;;;;6.47;5.03;;;;;;;17.83;100.00;98234.47;5108451;28;20255;-75
2021/09/12 03:07:28;;;;;;;6.60;5.50;;;;;;;17.78;100.00;98232.84;5094097;28;20208;-76
2021/09/12 03:09:55;;;;;;;7.17;5.90;;;;;;;17.81;100.00;98231.28;5094314;28;20207;-74
2021/09/12 03:12:21;;;;;;;7.20;5.63;;;;;;;17.82;100.00;98227.28;5094178;28;20205;-74
2021/09/12 03:14:48;;;;;;;9.23;5.70;;;;;;;17.82;100.00;98228.09;5093232;28;20891;-74
2021/09/12 03:17:14;;;;;;;7.90;5.40;;;;;;;17.83;100.00;98229.69;5094012;28;20208;-74
2021/09/12 03:19:41;;;;;;;7.17;5.23;;;;;;;17.86;100.00;98223.34;5093906;28;20200;-75
2021/09/12 03:22:07;;;;;;;7.00;5.40;;;;;;;17.88;100.00;98218.19;5094043;28;20218;-75
2021/09/12 03:24:34;;;;;;;6.60;5.60;;;;;;;17.85;100.00;98221.75;5093439;28;20936;-75
2021/09/12 03:27:00;;;;;;;6.60;5.17;;;;;;;17.86;100.00;98211.38;5092398;28;20262;-74
2021/09/12 03:29:27;;;;;;;7.73;5.50;;;;;;;17.94;100.00;98213.03;5093775;28;20299;-74
2021/09/12 03:31:53;;;;;;;6.23;5.00;;;;;;;17.93;100.00;98209.47;5093843;28;20211;-75
2021/09/12 03:34:20;;;;;;;7.00;5.13;;;;;;;17.86;100.00;98212.16;5108234;28;20229;-74
2021/09/12 03:36:46;;;;;;;10.00;5.13;;;;;;;17.87;100.00;98208.19;5083849;28;20200;-74
2021/09/12 03:39:13;;;;;;;8.63;5.07;;;;;;;17.79;100.00;98200.94;5092519;28;20204;-74
2021/09/12 03:41:39;;;;;;;7.87;5.30;;;;;;;17.87;100.00;98210.19;5093834;28;20292;-73
2021/09/12 03:44:06;;;;;;;7.23;5.47;;;;;;;17.83;100.00;98201.78;5093217;28;20224;-74
2021/09/12 03:46:32;;;;;;;10.30;5.17;;;;;;;17.77;100.00;98206.09;5093130;28;20217;-74
2021/09/12 03:48:59;;;;;;;6.90;5.00;;;;;;;17.76;100.00;98209.28;5092171;28;20227;-74
2021/09/12 03:51:25;;;;;;;6.90;5.10;;;;;;;17.80;100.00;98210.13;5092193;28;20688;-76
2021/09/12 03:53:52;;;;;;;7.53;5.33;;;;;;;17.76;100.00;98207.28;5108696;28;20230;-75
2021/09/12 03:56:18;;;;;;;6.10;5.17;;;;;;;17.77;100.00;98206.09;5098040;28;20239;-76
2021/09/12 03:58:45;;;;;;;7.93;5.83;;;;;;;17.79;100.00;98200.16;5113578;28;20664;-74
2021/09/12 04:01:11;;;;;;;7.27;4.97;;;;;;;17.80;100.00;98202.56;5113565;28;20291;-73
2021/09/12 04:03:38;;;;;;;6.37;5.07;;;;;;;17.83;100.00;98200.97;5113132;28;20210;-76
2021/09/12 04:06:04;;;;;;;7.73;5.53;;;;;;;17.86;100.00;98195.41;5099131;28;20742;-75
2021/09/12 04:08:31;;;;;;;6.23;4.93;;;;;;;17.95;100.00;98193.13;5094055;28;20728;-75
2021/09/12 04:10:57;;;;;;;6.80;4.90;;;;;;;17.89;100.00;98193.84;5095085;28;20295;-74
2021/09/12 04:13:24;;;;;;;7.37;5.20;;;;;;;17.81;100.00;98198.56;5075949;28;20697;-76
2021/09/12 04:15:50;;;;;;;7.23;5.40;;;;;;;17.83;100.00;98200.97;5092888;28;20669;-74
2021/09/12 04:18:17;;;;;;;7.10;5.20;;;;;;;17.90;100.00;98199.03;5093457;28;20213;-74
2021/09/12 04:20:43;;;;;;;8.40;5.30;;;;;;;17.88;100.00;98203.44;5093099;28;20843;-76
2021/09/12 04:23:10;;;;;;;6.83;5.20;;;;;;;17.84;100.00;98197.81;5092524;28;20291;-74
2021/09/12 04:25:36;;;;;;;8.33;5.43;;;;;;;17.87;100.00;98197.03;5091154;28;20316;-74
2021/09/12 04:28:03;;;;;;;7.17;5.63;;;;;;;17.87;100.00;98197.03;5091510;28;20200;-74
2021/09/12 04:30:29;;;;;;;6.90;5.30;;;;;;;17.88;100.00;98204.22;5074727;28;20210;-74
2021/09/12 04:32:56;;;;;;;5.90;5.03;;;;;;;17.86;100.00;98192.63;5082391;28;20822;-75
2021/09/12 04:35:22;;;;;;;8.80;5.20;;;;;;;17.91;100.00;98197.88;5112818;28;20605;-75
2021/09/12 04:37:49;;;;;;;6.13;4.87;;;;;;;17.99;100.00;98196.75;5115665;28;20295;-74
2021/09/12 04:40:15;;;;;;;5.93;4.83;;;;;;;18.02;100.00;98203.56;5115161;28;20647;-73
2021/09/12 04:42:42;;;;;;;6.70;5.10;;;;;;;17.89;100.00;98200.25;5113192;28;20544;-73
2021/09/12 04:45:09;;;;;;;6.67;5.47;;;;;;;17.89;100.00;98207.81;5093885;28;20227;-74
2021/09/12 04:47:35;;;;;;;4.87;4.33;;;;;;;17.92;100.00;98204.25;5112717;28;20763;-73
2021/09/12 04:50:02;;;;;;;8.17;4.63;;;;;;;17.90;100.00;98203.84;5112742;28;20203;-75
2021/09/12 04:52:29;;;;;;;6.67;5.13;;;;;;;18.05;100.00;98208.38;5112741;28;20216;-74
2021/09/12 04:54:55;;;;;;;7.50;4.87;;;;;;;18.02;100.00;98209.97;5111857;28;20248;-74
2021/09/12 04:57:22;;;;;;;5.77;4.73;;;;;;;18.05;100.00;98208.38;5112388;28;20203;-74
2021/09/12 04:59:48;;;;;;;6.87;5.20;;;;;;;18.04;100.00;98213.19;5112263;28;20208;-76
2021/09/12 05:02:15;;;;;;;5.47;4.40;;;;;;;18.11;100.00;98209.63;5112330;28;20206;-75
2021/09/12 05:04:42;;;;;;;6.27;5.10;;;;;;;18.17;100.00;98217.25;5109130;28;20224;-76
2021/09/12 05:07:08;;;;;;;6.10;5.03;;;;;;;18.15;100.00;98214.06;5090900;28;20209;-75
2021/09/12 05:09:35;;;;;;;5.80;4.97;;;;;;;18.21;100.00;98212.50;5092686;28;20864;-75
2021/09/12 05:12:01;;;;;;;5.83;5.00;;;;;;;18.34;100.00;98215.03;5091919;28;20204;-75
2021/09/12 05:14:28;;;;;;;8.13;4.93;;;;;;;18.32;100.00;98206.22;5073639;28;20323;-73
2021/09/12 05:16:54;;;;;;;7.00;5.37;;;;;;;18.30;100.00;98211.41;5091701;28;20215;-73
2021/09/12 05:19:20;;;;;;;6.50;5.57;;;;;;;18.31;100.00;98210.19;5091887;28;20295;-73
2021/09/12 05:21:48;;;;;;;8.63;5.47;;;;;;;18.32;100.00;98215.41;5091887;28;20201;-73
2021/09/12 05:24:14;;;;;;;6.93;5.57;;;;;;;18.33;100.00;98214.22;5091601;28;20315;-75
2021/09/12 05:26:41;;;;;;;6.17;5.03;;;;;;;18.33;100.00;98224.59;5090595;28;20291;-74
2021/09/12 05:29:07;;;;;;;6.40;5.10;;;;;;;18.30;100.00;98214.19;5092736;28;20288;-73
2021/09/12 05:31:33;;;;;;;6.50;5.43;;;;;;;18.42;100.00;98223.13;5108877;28;20271;-72
2021/09/12 05:34:00;;;;;;;5.38;4.75;;;;;;;18.45;100.00;98227.13;5104332;28;20260;-74
2021/09/12 05:36:27;;;;;;;6.77;5.70;;;;;;;18.42;100.00;98225.91;5091925;28;20200;-74
2021/09/12 05:38:53;;;;;;;6.55;4.90;;;;;;;18.45;100.00;98227.91;5091886;28;20650;-74
2021/09/12 05:41:19;;;;;;;7.07;5.47;;;;;;;18.50;100.00;98235.16;5091635;28;20650;-73
2021/09/12 05:43:46;;;;;;;6.28;4.88;;;;;;;18.48;100.00;98224.38;5091391;28;20280;-75
2021/09/12 05:46:12;;;;;;;6.00;5.25;;;;;;;18.59;100.00;98230.84;5091264;28;20643;-72
2021/09/12 05:48:39;;;;;;;6.78;4.75;;;;;;;18.53;100.00;98228.78;5091723;28;20204;-72
2021/09/12 05:51:05;;;;;;;6.65;5.22;;;;;;;18.59;100.00;98230.03;5091634;28;20283;-75
2021/09/12 05:53:32;;;;;;;6.97;5.22;;;;;;;18.64;100.00;98226.88;5091111;28;20315;-74
2021/09/12 05:55:58;;;;;;;7.10;5.07;;;;;;;18.70;100.00;98228.91;5094535;28;20241;-73
2021/09/12 05:58:25;;;;;;;5.73;4.50;;;;;;;18.75;100.00;98227.75;5111911;28;20640;-72
2021/09/12 06:00:52;;;;;;;5.82;5.05;;;;;;;18.78;100.00;98222.19;5115024;28;20287;-72
2021/09/12 06:03:19;;;;;;;9.25;4.93;;;;;;;18.77;100.00;98222.56;5128123;28;20684;-75
2021/09/12 06:05:45;;;;;;;6.88;5.32;;;;;;;18.79;100.00;98229.41;5093475;28;20220;-74
2021/09/12 06:08:12;;;;;;;6.75;5.03;;;;;;;18.86;100.00;98226.66;5092108;28;20204;-73
2021/09/12 06:10:38;;;;;;;5.15;4.25;;;;;;;18.87;100.00;98227.44;5091264;28;20308;-75
2021/09/12 06:13:05;;;;;;;5.72;4.43;;;;;;;19.01;100.00;98216.34;5091364;28;20200;-75
2021/09/12 06:15:31;;;;;;;5.20;4.22;;;;;;;19.13;100.00;98216.81;5089589;28;20319;-74
2021/09/12 06:17:58;;;;;;;5.10;4.50;;;;;;;19.23;100.00;98223.66;5056799;28;20205;-74
2021/09/12 06:20:24;;;;;;;6.63;5.30;;;;;;;19.27;100.00;98221.66;5075879;28;20741;-74
2021/09/12 06:22:53;;;;;;;7.03;4.70;;;;;;;19.42;100.00;98217.78;5095654;28;20218;-73
2021/09/12 06:25:20;;;;;;;5.47;4.85;;;;;;;19.58;100.00;98212.63;5094269;28;20231;-72
2021/09/12 06:27:47;;;;;;;7.47;5.03;;;;;;;19.76;100.00;98207.09;5095656;28;20222;-73
2021/09/12 06:30:17;;;;;;;6.55;4.43;;;;;;;19.93;100.00;98197.91;5077530;28;20295;-73
2021/09/12 06:32:43;;;;;;;9.10;4.95;;;;;;;19.79;100.00;98201.50;5106580;28;20214;-74
2021/09/12 06:35:11;;;;;;;7.00;5.28;;;;;;;19.65;100.00;98211.88;5129741;28;20295;-73
2021/09/12 06:37:37;;;;;;;9.50;5.30;;;;;;;19.72;100.00;98201.50;5126796;28;20208;-74
2021/09/12 06:40:05;;;;;;;7.05;4.88;;;;;;;19.71;100.00;98208.28;5115790;28;20214;-74
2021/09/12 06:42:32;;;;;;;5.47;4.90;;;;;;;19.58;100.00;98206.25;5115768;28;20290;-73
2021/09/12 06:44:59;;;;;;;6.82;5.25;;;;;;;19.65;100.00;98221.03;5114845;28;20232;-73
2021/09/12 06:47:26;;;;;;;6.97;5.28;;;;;;;19.65;100.00;98218.25;5115176;28;20278;-74
2021/09/12 06:49:52;;;;;;;7.38;5.50;;;;;;;19.74;100.00;98213.06;5097202;28;20668;-74
2021/09/12 06:52:19;;;;;;;10.18;5.10;;;;;;;19.94;100.00;98214.31;5115005;28;20590;-74
2021/09/12 06:54:45;;;;;;;6.45;5.03;;;;;;;20.27;100.00;98210.44;5114034;28;20596;-74
2021/09/12 06:57:11;;;;;;;7.65;5.05;;;;;;;20.48;100.00;98195.59;5114744;28;20210;-75
2021/09/12 06:59:38;;;;;;;8.55;5.78;;;;;;;20.67;100.00;98189.56;5114710;28;20214;-75
2021/09/12 07:02:04;;;;;;;6.25;5.15;;;;;;;20.58;100.00;98189.19;5114716;28;20211;-75
2021/09/12 07:04:31;;;;;;;6.68;5.53;;;;;;;20.93;100.00;98180.69;5111764;28;20261;-74
2021/09/12 07:06:59;;;;;;;8.13;5.55;;;;;;;21.17;100.00;98173.47;5092612;28;20215;-73
2021/09/12 07:09:25;;;;;;;6.15;5.00;;;;;;;21.34;100.00;98173.38;5094236;28;20663;-74
2021/09/12 07:11:52;;;;;;;7.30;5.40;;;;;;;21.72;100.00;98166.78;5094467;28;20292;-74
2021/09/12 07:14:38;;;;;;;8.27;5.20;;;;;;;21.92;100.00;98167.06;5094055;28;20586;-74
2021/09/12 07:17:06;;;;;;;6.18;5.03;;;;;;;21.78;100.00;98161.53;5093905;28;20655;-73
2021/09/12 07:19:32;;;;;;;8.30;4.93;;;;;;;21.41;100.00;98170.53;5094213;28;20215;-73
2021/09/12 07:21:59;;;;;;;5.80;4.35;;;;;;;21.13;100.00;98182.69;5093928;28;20270;-72
2021/09/12 07:24:25;;;;;;;5.45;4.30;;;;;;;21.28;100.00;98189.03;5093634;28;20600;-74
2021/09/12 07:26:52;;;;;;;4.53;3.78;;;;;;;21.28;100.00;98191.84;5075678;28;20212;-76
2021/09/12 07:29:18;;;;;;;4.53;4.07;;;;;;;21.15;100.00;98193.50;5093638;28;20684;-75
2021/09/12 07:31:45;;;;;;;5.75;4.28;;;;;;;21.22;100.00;98203.91;5093508;28;20848;-76
2021/09/12 07:34:11;;;;;;;5.28;4.32;;;;;;;21.27;100.00;98201.50;5111332;28;20307;-75
2021/09/12 07:36:38;;;;;;;5.50;4.30;;;;;;;21.43;100.00;98186.97;5113885;28;20267;-74
2021/09/12 07:39:04;;;;;;;5.50;4.28;;;;;;;21.56;100.00;98197.38;5114032;28;20218;-74
2021/09/12 07:41:31;;;;;;;5.93;4.88;;;;;;;21.47;100.00;98204.63;5114027;28;20295;-75
2021/09/12 07:43:57;;;;;;;5.65;4.75;;;;;;;21.50;100.00;98204.59;5113494;28;20824;-75
2021/09/12 07:46:24;;;;;;;5.63;4.38;;;;;;;21.53;100.00;98203.78;5114277;28;20204;-74
2021/09/12 07:48:50;;;;;;;8.43;4.55;;;;;;;21.60;100.00;98209.41;5114205;28;20207;-76
2021/09/12 07:51:17;;;;;;;6.38;4.78;;;;;;;21.77;100.00;98208.47;5112915;28;20290;-76
2021/09/12 07:53:43;;;;;;;4.68;4.03;;;;;;;21.98;100.00;98210.41;5113880;28;20294;-75
2021/09/12 07:56:10;;;;;;;4.78;4.15;;;;;;;22.17;100.00;98202.25;5096439;28;20212;-74
2021/09/12 07:58:36;;;;;;;8.07;4.68;;;;;;;22.20;100.00;98202.63;5091765;28;20207;-73
2021/09/12 08:01:03;;;;;;;6.47;4.90;;;;;;;22.30;100.00;98196.91;5073859;28;20291;-74
2021/09/12 08:03:30;;;;;;;6.03;4.57;;;;;;;22.48;100.00;98196.81;5074036;28;20258;-76
2021/09/12 08:05:56;;;;;;;5.35;4.30;;;;;;;22.71;100.00;98194.22;5091922;28;20196;-75
2021/09/12 08:08:23;;;;;;;6.18;4.88;;;;;;;23.61;100.00;98185.19;5092184;28;20201;-75
2021/09/12 08:10:50;;;;;;;6.63;4.70;;;;;;;23.82;100.00;98168.78;5056851;28;20200;-72
2021/09/12 08:13:16;;;;;;;5.50;4.18;;;;;;;25.01;100.00;98148.28;5087249;28;20213;-73
2021/09/12 08:15:43;;;;;;;5.60;4.10;;;;;;;24.57;100.00;98146.66;5089793;28;20232;-73
2021/09/12 08:18:09;;;;;;;4.85;3.90;;;;;;;24.34;100.00;98149.47;5070814;28;20236;-73
2021/09/12 08:20:36;;;;;;;4.60;4.13;;;;;;;24.34;100.00;98151.50;5090124;28;20209;-75
2021/09/12 08:23:03;;;;;;;6.68;3.75;;;;;;;24.30;100.00;98154.38;5090521;28;20765;-72
2021/09/12 08:25:29;;;;;;;5.38;4.00;;;;;;;24.73;100.00;98154.47;5073176;28;20251;-74
2021/09/12 08:27:56;;;;;;;5.43;4.60;;;;;;;26.04;100.00;98145.72;5090867;28;20717;-72
2021/09/12 08:30:22;;;;;;;4.85;4.35;;;;;;;26.89;100.00;98120.94;5091227;28;20215;-73
2021/09/12 08:32:48;;;;;;;6.43;3.53;;;;;;;28.18;100.00;98112.63;5096891;28;20214;-73
2021/09/12 08:35:15;;;;;;;3.95;3.55;;;;;;;28.67;100.00;98105.28;5110631;28;20247;-73
2021/09/12 08:37:42;;;;;;;4.35;3.80;;;;;;;28.96;100.00;98105.06;5093533;28;20208;-73
2021/09/12 08:40:09;;;;;;;6.18;4.57;;;;;;;29.25;100.00;98102.81;5111403;28;20204;-75
2021/09/12 08:42:37;;;;;;;4.50;3.90;;;;;;;29.41;100.00;98102.63;5109823;28;20239;-73
2021/09/12 08:45:04;;;;;;;4.65;3.72;;;;;;;29.58;100.00;98106.81;5092479;28;20224;-73
2021/09/12 08:47:31;;;;;;;3.67;3.33;;;;;;;29.68;100.00;98102.00;5093464;28;20204;-72
2021/09/12 08:49:58;;;;;;;4.15;3.30;;;;;;;29.90;100.00;98089.34;5093361;28;20315;-73
2021/09/12 08:52:24;;;;;;;4.32;3.00;;;;;;;30.05;100.00;98089.56;5111666;28;20211;-75
2021/09/12 08:54:51;;;;;;;3.10;2.80;;;;;;;30.33;100.00;98087.63;5109741;28;20227;-75
2021/09/12 08:57:17;;;;;;;4.95;3.20;;;;;;;30.49;100.00;98095.88;5087930;28;20268;-77
2021/09/12 08:59:51;;;;;;;3.28;2.80;;;;;;;30.64;100.00;98096.84;5076469;28;20203;-74
2021/09/12 09:02:25;;;;;;;3.42;2.85;;;;;;;30.69;100.00;98088.47;5111462;28;20199;-76
2021/09/12 09:05:01;;;;;;;3.00;2.70;;;;;;;30.61;100.00;98092.09;5087456;28;20229;-76
2021/09/12 09:07:29;;;;;;;3.10;2.53;;;;;;;30.80;100.00;98088.78;5090503;28;20278;-76
2021/09/12 09:09:57;;;;;;;2.60;2.40;;;;;;;30.06;100.00;98087.47;5090894;28;20218;-76
2021/09/12 09:12:37;;;;;;;2.85;2.17;;;;;;;30.47;100.00;98093.50;5090748;28;20200;-75
2021/09/12 09:15:14;;;;;;;2.50;2.20;;;;;;;29.46;100.00;98089.84;5087941;28;20223;-76
2021/09/12 09:17:49;;;;;;;2.08;1.58;;;;;;;27.76;100.00;98094.09;5090299;28;20328;-74
2021/09/12 09:20:25;;;;;;;2.03;1.80;;;;;;;28.03;100.00;98105.03;5090455;28;20231;-74
2021/09/12 09:22:57;;;;;;;2.20;2.00;;;;;;;28.73;100.00;98088.47;5090570;28;20235;-73
2021/09/12 09:25:26;;;;;;;1.77;1.67;;;;;;;29.93;100.00;98081.91;5089130;28;20686;-73
2021/09/12 09:28:09;;;;;;;1.75;1.65;;;;;;;30.36;100.00;98078.94;5090358;28;20200;-72
2021/09/12 09:30:49;;;;;;;1.98;1.85;;;;;;;30.59;100.00;98075.47;5069949;28;20232;-74
2021/09/12 09:33:20;;;;;;;1.90;1.77;;;;;;;31.02;100.00;98077.28;5062492;28;20858;-73
2021/09/12 09:35:55;;;;;;;2.92;2.00;;;;;;;30.73;100.00;98068.34;5088958;28;20226;-73
2021/09/12 09:38:24;;;;;;;3.08;2.08;;;;;;;29.65;100.00;98066.72;5090117;28;20276;-73
2021/09/12 09:41:02;;;;;;;1.75;1.65;;;;;;;28.66;100.00;98080.19;5091290;28;20208;-73
2021/09/12 09:43:48;;;;;;;2.00;1.80;;;;;;;29.59;100.00;98079.97;5096214;28;20212;-72
2021/09/12 09:46:34;;;;;;;2.05;1.60;;;;;;;30.23;100.00;98068.88;5073498;28;20303;-73
2021/09/12 09:49:23;;;;;;;1.50;1.40;;;;;;;29.47;100.00;98069.47;5088780;28;20287;-72
2021/09/12 09:51:51;;;;;;;2.20;1.67;;;;;;;28.72;100.00;98061.31;5089580;28;20200;-73
2021/09/12 09:54:20;;;;;;;1.52;1.42;;;;;;;28.59;100.00;98069.09;5089657;28;20312;-73
2021/09/12 09:56:47;;;;;;;2.00;1.67;;;;;;;29.68;100.00;98054.41;5102484;28;20200;-74
2021/09/12 09:59:16;;;;;;;2.33;1.90;;;;;;;29.80;100.00;98062.06;5107169;28;20576;-74
2021/09/12 10:01:47;;;;;;;2.17;1.88;;;;;;;29.87;100.00;98052.47;5093316;28;20650;-74
2021/09/12 10:04:14;;;;;;;2.80;1.75;;;;;;;28.86;100.00;98055.09;5093093;28;20228;-73
2021/09/12 10:06:41;;;;;;;1.65;1.55;;;;;;;29.17;100.00;98069.41;5091985;28;20288;-74
2021/09/12 10:09:13;;;;;;;7.95;4.75;;;;;;;29.35;100.00;98056.13;5093784;28;20215;-74
2021/09/12 10:11:52;;;;;;;6.25;3.80;;;;;;;29.38;100.00;98058.03;5097561;28;20224;-74
2021/09/12 10:14:31;;;;;;;3.03;2.40;;;;;;;27.81;100.00;98054.59;5103063;28;20269;-74
2021/09/12 10:17:00;;;;;;;1.67;1.55;;;;;;;28.39;100.00;98060.00;5093760;28;20193;-72
2021/09/12 10:19:38;;;;;;;1.58;1.48;;;;;;;28.32;100.00;98048.91;5095014;28;20286;-73
2021/09/12 10:22:18;;;;;;;2.13;1.70;;;;;;;27.93;100.00;98055.88;5093943;28;20296;-72
2021/09/12 10:25:00;;;;;;;2.35;2.05;;;;;;;28.26;100.00;98045.03;5093456;28;20228;-74
2021/09/12 10:27:34;;;;;;;2.05;1.77;;;;;;;29.02;100.00;98052.06;5092619;28;20314;-74
2021/09/12 10:30:20;;;;;;;2.92;2.05;;;;;;;28.75;100.00;98060.38;5092547;28;20320;-75
2021/09/12 10:32:50;;;;;;;2.22;1.98;;;;;;;28.82;100.00;98055.25;5099122;28;20207;-72
2021/09/12 10:35:24;;;;;;;2.30;1.80;;;;;;;29.17;100.00;98047.47;5113134;28;20255;-72
2021/09/12 10:37:54;;;;;;;2.35;1.88;;;;;;;29.19;100.00;98044.97;5113863;28;20231;-71
2021/09/12 10:40:21;;;;;;;2.13;1.80;;;;;;;29.20;100.00;98043.69;5115071;28;20214;-74
2021/09/12 10:42:47;;;;;;;4.65;2.10;;;;;;;29.21;100.00;98044.50;5121248;28;20291;-71
2021/09/12 10:45:21;;;;;;;4.10;3.17;;;;;;;28.91;100.00;98040.31;5118534;28;20665;-74
2021/09/12 10:47:49;;;;;;;2.35;1.50;;;;;;;28.35;100.00;98042.28;5112081;28;20210;-74
2021/09/12 10:50:41;;;;;;;2.63;1.95;;;;;;;27.62;100.00;98047.13;5110749;28;20271;-75
2021/09/12 10:53:08;;;;;;;2.35;1.80;;;;;;;27.17;100.00;98054.16;5111324;28;20283;-72
2021/09/12 10:56:04;;;;;;;15.07;10.85;;;;;;;26.45;100.00;98070.72;5105662;28;20709;-75
2021/09/12 10:58:32;;;;;;;4.93;3.70;;;;;;;26.26;100.00;98075.25;5090167;28;20211;-72
2021/09/12 11:01:02;;;;;;;6.43;5.28;;;;;;;26.12;100.00;98074.81;5111218;28;20257;-72
2021/09/12 11:03:30;;;;;;;24.35;17.25;;;;;;;26.01;100.00;98078.69;5112063;28;20208;-72
2021/09/12 11:05:57;;;;;;;4.47;3.95;;;;;;;26.08;100.00;98091.06;5111494;28;20741;-71
2021/09/12 11:08:38;;;;;;;22.05;14.55;;;;;;;26.17;100.00;98082.78;5111995;28;20253;-74
2021/09/12 11:11:07;;;;;;;7.53;5.97;;;;;;;27.09;100.00;98081.09;5092840;28;20290;-72
2021/09/12 11:13:35;;;;;;;6.10;5.10;;;;;;;27.36;100.00;98059.69;5111570;28;20210;-74
2021/09/12 11:16:20;;;;;;;5.25;4.50;;;;;;;27.95;100.00;98051.34;5111984;28;20219;-75
2021/09/12 11:18:58;;;;;;;35.63;27.63;;;;;;;28.16;100.00;98061.19;5111715;28;20250;-75
2021/09/12 11:21:48;;;;;;;17.70;13.35;;;;;;;28.49;100.00;98050.31;5111960;28;20207;-76
2021/09/12 11:24:26;;;;;;;12.40;9.75;;;;;;;27.81;100.00;98059.47;5093377;28;20347;-74
2021/09/12 11:27:19;;;;;;;20.92;14.48;;;;;;;27.80;100.00;98047.34;5111885;28;20219;-75
2021/09/12 11:29:45;;;;;;;7.13;5.10;;;;;;;27.40;100.00;98060.38;5091525;28;20204;-76
2021/09/12 11:32:17;;;;;;;5.40;3.85;;;;;;;27.53;100.00;98058.34;5091667;28;20213;-75
2021/09/12 11:34:49;;;;;;;3.85;2.85;;;;;;;27.79;100.00;98040.06;5110420;28;20223;-76
2021/09/12 11:37:18;;;;;;;4.55;2.45;;;;;;;27.50;100.00;98032.94;5111918;28;20203;-75
2021/09/12 11:39:46;;;;;;;1.90;1.80;;;;;;;27.18;100.00;98039.53;5111638;28;20673;-75
2021/09/12 11:42:17;;;;;;;2.28;2.08;;;;;;;26.67;100.00;98043.41;5092671;28;20231;-75
2021/09/12 11:44:46;;;;;;;2.00;1.63;;;;;;;27.17;100.00;98052.09;5110587;28;20891;-74
2021/09/12 11:47:18;;;;;;;3.00;1.85;;;;;;;27.19;100.00;98034.69;5111383;28;20348;-74
2021/09/12 11:49:59;;;;;;;2.90;1.95;;;;;;;27.25;100.00;98024.34;5111328;28;20204;-75
2021/09/12 11:52:36;;;;;;;2.53;1.92;;;;;;;27.40;100.00;98023.50;5110615;28;21366;-75
2021/09/12 11:55:20;;;;;;;2.25;1.90;;;;;;;27.36;100.00;98017.16;5109985;28;20303;-75
2021/09/12 11:58:00;;;;;;;2.92;1.80;;;;;;;27.47;100.00;98011.13;5072876;28;20208;-75
2021/09/12 12:00:27;;;;;;;2.28;1.73;;;;;;;26.78;100.00;98009.97;5090503;28;20612;-74
2021/09/12 12:02:54;;;;;;;9.02;4.47;;;;;;;26.75;100.00;98014.47;5089880;28;20204;-74
2021/09/12 12:05:22;;;;;;;1.73;1.45;;;;;;;27.68;100.00;97993.47;5089855;28;20270;-76